createdAt,value
2022-08-26T00:02:22.486Z,99724.97
2022-08-26T00:05:27.944Z,99731.42
2022-08-26T00:08:34.486Z,99726.66
2022-08-26T00:11:40.798Z,99733.66
2022-08-26T00:14:46.991Z,99725.55
2022-08-26T00:17:53.498Z,99742.15
2022-08-26T00:20:59.391Z,99730.42
2022-08-26T00:24:06.072Z,99734.61
2022-08-26T00:27:12.727Z,99729.83
2022-08-26T00:30:22.926Z,99723.13
2022-08-26T00:33:29.924Z,99727.31
2022-08-26T00:36:35.561Z,99710.83
2022-08-26T00:39:40.977Z,99718.94
2022-08-26T00:42:46.557Z,99713.36
2022-08-26T00:46:07.292Z,99715.59
2022-08-26T00:49:25.132Z,99723.67
2022-08-26T00:52:34.963Z,99712.27
2022-08-26T00:55:46.245Z,99719.48
2022-08-26T00:58:55.272Z,99713.09
2022-08-26T01:02:02.791Z,99716.16
2022-08-26T01:05:12.372Z,99711.12
2022-08-26T01:08:17.730Z,99699.13
2022-08-26T01:11:24.539Z,99691.58
2022-08-26T01:14:30.917Z,99708.88
2022-08-26T01:17:36.892Z,99701.38
2022-08-26T01:21:00.241Z,99696.61
2022-08-26T01:24:07.202Z,99692.98
2022-08-26T01:27:19.730Z,99695.48
2022-08-26T01:30:25.988Z,99696.34
2022-08-26T01:33:40.012Z,99691.00
2022-08-26T01:36:42.819Z,99688.50
2022-08-26T01:39:50.161Z,99675.66
2022-08-26T01:42:56.799Z,99672.87
2022-08-26T01:46:03.475Z,99675.63
2022-08-26T01:49:10.188Z,99671.17
2022-08-26T01:52:15.823Z,99678.73
2022-08-26T01:55:32.342Z,99680.13
2022-08-26T01:58:39.878Z,99669.23
2022-08-26T02:01:32.367Z,99673.69
2022-08-26T02:04:49.917Z,99682.94
2022-08-26T02:07:57.652Z,99678.73
2022-08-26T02:11:03.439Z,99692.67
2022-08-26T02:14:19.084Z,99686.00
2022-08-26T02:17:21.153Z,99703.05
2022-08-26T02:20:27.971Z,99703.53
2022-08-26T02:23:33.645Z,99710.52
2022-08-26T02:26:41.370Z,99712.45
2022-08-26T02:29:54.110Z,99709.34
2022-08-26T02:33:01.897Z,99717.16
2022-08-26T02:36:08.212Z,99713.76
2022-08-26T02:39:18.013Z,99720.73
2022-08-26T02:42:20.650Z,99731.31
2022-08-26T02:45:26.024Z,99731.22
2022-08-26T02:48:26.119Z,99729.87
2022-08-26T02:51:31.810Z,99724.58
2022-08-26T02:54:39.553Z,99727.09
2022-08-26T02:57:45.082Z,99723.16
2022-08-26T03:00:54.754Z,99720.07
2022-08-26T03:04:00.564Z,99725.93
2022-08-26T03:07:07.255Z,99723.12
2022-08-26T03:10:12.693Z,99727.77
2022-08-26T03:13:18.515Z,99731.25
2022-08-26T03:16:24.723Z,99742.70
2022-08-26T03:19:32.235Z,99746.81
2022-08-26T03:22:39.396Z,99750.27
2022-08-26T03:25:45.722Z,99766.00
2022-08-26T03:29:10.089Z,99759.66
2022-08-26T03:32:16.014Z,99761.36
2022-08-26T03:35:22.519Z,99757.19
2022-08-26T03:38:28.330Z,99764.64
2022-08-26T03:41:35.314Z,99750.16
2022-08-26T03:44:41.965Z,99757.64
2022-08-26T03:47:48.825Z,99745.70
2022-08-26T03:50:48.806Z,99747.33
2022-08-26T03:53:57.129Z,99746.78
2022-08-26T03:57:03.341Z,99738.70
2022-08-26T04:00:08.353Z,99740.05
2022-08-26T04:03:18.638Z,99733.64
2022-08-26T04:06:22.429Z,99741.10
2022-08-26T04:09:33.076Z,99745.48
2022-08-26T04:12:40.771Z,99747.27
2022-08-26T04:15:46.916Z,99730.55
2022-08-26T04:18:54.067Z,99729.68
2022-08-26T04:22:00.400Z,99735.19
2022-08-26T04:25:06.868Z,99720.00
2022-08-26T04:28:13.118Z,99724.17
2022-08-26T04:31:19.505Z,99721.91
2022-08-26T04:34:27.272Z,99715.86
2022-08-26T04:37:32.632Z,99724.09
2022-08-26T04:40:38.460Z,99726.64
2022-08-26T04:43:45.801Z,99709.17
2022-08-26T04:46:51.836Z,99712.52
2022-08-26T04:49:59.992Z,99719.83
2022-08-26T04:52:58.798Z,99720.87
2022-08-26T04:56:05.079Z,99723.21
2022-08-26T04:59:16.674Z,99720.59
2022-08-26T05:02:18.706Z,99702.14
2022-08-26T05:05:25.123Z,99728.78
2022-08-26T05:08:32.073Z,99721.03
2022-08-26T05:11:38.439Z,99708.97
2022-08-26T05:14:43.829Z,99726.96
2022-08-26T05:17:49.301Z,99715.05
2022-08-26T05:21:00.098Z,99727.64
2022-08-26T05:24:05.006Z,99722.41
2022-08-26T05:27:12.511Z,99733.61
2022-08-26T05:30:18.365Z,99732.84
2022-08-26T05:33:24.325Z,99739.28
2022-08-26T05:36:32.990Z,99739.62
2022-08-26T05:39:41.261Z,99728.50
2022-08-26T05:42:42.500Z,99727.33
2022-08-26T05:45:53.466Z,99730.71
2022-08-26T05:49:02.070Z,99733.24
2022-08-26T05:52:07.572Z,99725.37
2022-08-26T05:55:14.921Z,99717.32
2022-08-26T05:58:22.295Z,99724.69
2022-08-26T06:01:35.848Z,99726.89
2022-08-26T06:04:41.009Z,99729.14
2022-08-26T06:08:04.404Z,99718.27
2022-08-26T06:11:18.678Z,99723.57
2022-08-26T06:14:22.201Z,99717.72
2022-08-26T06:17:31.760Z,99721.09
2022-08-26T06:20:38.275Z,99712.13
2022-08-26T06:24:02.741Z,99736.13
2022-08-26T06:27:12.316Z,99727.20
2022-08-26T06:30:19.222Z,99734.45
2022-08-26T06:33:24.301Z,99741.42
2022-08-26T06:36:40.173Z,99741.73
2022-08-26T06:39:47.758Z,99753.73
2022-08-26T06:42:55.140Z,99763.52
2022-08-26T06:46:01.875Z,99760.75
2022-08-26T06:49:09.169Z,99760.55
2022-08-26T06:52:21.166Z,99763.08
2022-08-26T06:55:27.114Z,99768.10
2022-08-26T06:58:31.156Z,99766.17
2022-08-26T07:01:42.944Z,99775.68
2022-08-26T07:04:51.632Z,99784.04
2022-08-26T07:07:59.333Z,99789.38
2022-08-26T07:11:05.910Z,99780.69
2022-08-26T07:14:12.482Z,99787.37
2022-08-26T07:17:19.470Z,99794.09
2022-08-26T07:20:25.912Z,99780.37
2022-08-26T07:23:31.984Z,99784.56
2022-08-26T07:26:45.507Z,99779.77
2022-08-26T07:29:53.865Z,99778.08
2022-08-26T07:33:01.382Z,99782.55
2022-08-26T07:36:06.546Z,99779.12
2022-08-26T07:39:13.233Z,99772.91
2022-08-26T07:42:22.876Z,99776.50
2022-08-26T07:45:28.722Z,99777.88
2022-08-26T07:48:35.459Z,99774.71
2022-08-26T07:51:44.474Z,99782.01
2022-08-26T07:54:52.225Z,99786.98
2022-08-26T07:57:53.593Z,99770.73
2022-08-26T08:00:58.619Z,99768.52
2022-08-26T08:04:25.578Z,99761.98
2022-08-26T08:07:44.232Z,99772.81
2022-08-26T08:10:40.628Z,99773.44
2022-08-26T08:13:46.291Z,99733.56
2022-08-26T08:16:54.610Z,99774.57
2022-08-26T08:20:00.384Z,99761.06
2022-08-26T08:23:09.977Z,99757.00
2022-08-26T08:26:16.954Z,99761.13
2022-08-26T08:29:23.979Z,99758.22
2022-08-26T08:32:28.805Z,99756.19
2022-08-26T08:35:35.101Z,99760.66
2022-08-26T08:38:43.724Z,99746.25
2022-08-26T08:42:15.800Z,99757.34
2022-08-26T08:45:38.389Z,99755.92
2022-08-26T08:48:48.069Z,99760.89
2022-08-26T08:52:06.883Z,99751.64
2022-08-26T08:55:14.801Z,99752.61
2022-08-26T08:58:22.641Z,99751.39
2022-08-26T09:01:45.121Z,99745.45
2022-08-26T09:05:17.065Z,99744.30
2022-08-26T09:08:41.664Z,99745.09
2022-08-26T09:11:47.280Z,99731.03
2022-08-26T09:14:53.983Z,99726.27
2022-08-26T09:18:19.480Z,99725.39
2022-08-26T09:21:27.541Z,99735.03
2022-08-26T09:24:37.299Z,99751.14
2022-08-26T09:28:02.954Z,99736.98
2022-08-26T09:31:36.322Z,99742.77
2022-08-26T09:34:43.452Z,99746.38
2022-08-26T09:37:57.925Z,99749.67
2022-08-26T09:41:18.450Z,99748.16
2022-08-26T09:44:34.541Z,99755.91
2022-08-26T09:47:50.693Z,99746.30
2022-08-26T09:51:07.969Z,99747.59
2022-08-26T09:54:14.991Z,99768.84
2022-08-26T09:57:32.348Z,99749.84
2022-08-26T10:00:59.529Z,99746.78
2022-08-26T10:04:06.184Z,99742.59
2022-08-26T10:07:19.016Z,99734.88
2022-08-26T10:10:29.575Z,99748.67
2022-08-26T10:13:48.715Z,99752.45
2022-08-26T10:17:18.348Z,99742.59
2022-08-26T10:20:32.076Z,99743.92
2022-08-26T10:23:43.951Z,99735.83
2022-08-26T10:26:58.181Z,99745.64
2022-08-26T10:30:08.550Z,99734.73
2022-08-26T10:33:25.622Z,99730.31
2022-08-26T10:40:25.524Z,99731.41
2022-08-26T10:43:43.794Z,99722.77
2022-08-26T10:46:53.944Z,99719.95
2022-08-26T10:50:00.042Z,99718.13
2022-08-26T10:53:25.155Z,99712.59
2022-08-26T10:56:56.374Z,99718.03
2022-08-26T11:00:52.260Z,99722.37
2022-08-26T11:04:05.556Z,99711.90
2022-08-26T11:07:53.261Z,99710.61
2022-08-26T11:11:14.621Z,99714.89
2022-08-26T11:14:53.602Z,99726.22
2022-08-26T11:18:20.052Z,99730.86
2022-08-26T11:22:04.553Z,99743.38
2022-08-26T11:25:17.620Z,99742.23
2022-08-26T11:28:24.289Z,99735.02
2022-08-26T11:31:43.096Z,99732.84
2022-08-26T11:35:08.115Z,99732.95
2022-08-26T11:38:20.210Z,99732.59
2022-08-26T11:41:32.658Z,99716.78
2022-08-26T11:44:49.593Z,99714.22
2022-08-26T11:47:49.466Z,99711.53
2022-08-26T11:50:55.734Z,99706.87
2022-08-26T11:54:01.639Z,99711.78
2022-08-26T11:57:09.475Z,99707.69
2022-08-26T12:00:22.521Z,99706.43
2022-08-26T12:03:24.381Z,99702.07
2022-08-26T12:06:38.901Z,99709.62
2022-08-26T12:09:40.102Z,99707.50
2022-08-26T12:12:49.231Z,99702.88
2022-08-26T12:15:55.962Z,99717.11
2022-08-26T12:19:03.222Z,99702.14
2022-08-26T12:22:16.846Z,99697.06
2022-08-26T12:25:22.988Z,99703.44
2022-08-26T12:28:28.300Z,99700.22
2022-08-26T12:31:48.475Z,99706.48
2022-08-26T12:35:02.036Z,99705.36
2022-08-26T12:38:09.435Z,99689.72
2022-08-26T12:41:15.971Z,99686.81
2022-08-26T12:44:21.677Z,99691.41
2022-08-26T12:47:46.621Z,99704.77
2022-08-26T12:51:01.335Z,99706.85
2022-08-26T12:54:00.313Z,99704.72
2022-08-26T12:57:05.905Z,99697.78
2022-08-26T13:00:32.122Z,99692.92
2022-08-26T13:03:53.752Z,99685.28
2022-08-26T13:07:01.547Z,99676.95
2022-08-26T13:10:10.198Z,99694.71
2022-08-26T13:13:15.927Z,99676.48
2022-08-26T13:16:22.757Z,99685.20
2022-08-26T13:19:34.278Z,99684.66
2022-08-26T13:25:45.538Z,99680.44
2022-08-26T13:29:01.976Z,99685.83
2022-08-26T13:31:58.908Z,99689.02
2022-08-26T13:35:06.120Z,99692.76
2022-08-26T13:38:11.968Z,99683.67
2022-08-26T13:41:28.918Z,99688.99
2022-08-26T13:44:26.544Z,99687.66
2022-08-26T13:47:32.625Z,99678.53
2022-08-26T13:50:47.124Z,99685.36
2022-08-26T13:53:53.603Z,99673.23
2022-08-26T13:56:59.094Z,99665.97
2022-08-26T14:00:06.566Z,99665.87
2022-08-26T14:03:13.681Z,99661.08
2022-08-26T14:06:19.170Z,99654.80
2022-08-26T14:09:23.961Z,99656.57
2022-08-26T14:12:30.838Z,99673.95
2022-08-26T14:15:37.413Z,99671.71
2022-08-26T14:18:50.941Z,99690.03
2022-08-26T14:21:56.099Z,99689.06
2022-08-26T14:25:03.591Z,99681.18
2022-08-26T14:28:11.010Z,99674.08
2022-08-26T14:31:18.344Z,99676.33
2022-08-26T14:34:23.935Z,99681.25
2022-08-26T14:37:28.863Z,99682.30
2022-08-26T14:40:37.769Z,99689.08
2022-08-26T14:43:41.644Z,99681.91
2022-08-26T14:46:56.718Z,99688.28
2022-08-26T14:50:02.611Z,99684.86
2022-08-26T14:53:26.083Z,99684.28
2022-08-26T14:56:31.732Z,99679.77
2022-08-26T14:59:36.530Z,99666.05
2022-08-26T15:02:45.306Z,99660.88
2022-08-26T15:05:52.960Z,99647.78
2022-08-26T15:08:59.798Z,99644.53
2022-08-26T15:12:05.561Z,99633.34
2022-08-26T15:15:11.588Z,99609.84
2022-08-26T15:18:17.320Z,99601.50
2022-08-26T15:21:22.977Z,99624.44
2022-08-26T15:24:29.959Z,99625.92
2022-08-26T15:27:35.817Z,99648.27
2022-08-26T15:30:34.612Z,99642.27
2022-08-26T15:33:41.568Z,99653.19
2022-08-26T15:36:46.663Z,99658.44
2022-08-26T15:39:52.780Z,99655.26
2022-08-26T15:43:17.612Z,99668.30
2022-08-26T15:46:08.798Z,99663.43
2022-08-26T15:49:23.017Z,99672.84
2022-08-26T15:52:28.530Z,99669.40
2022-08-26T15:55:27.090Z,99674.03
2022-08-26T15:58:27.473Z,99667.50
2022-08-26T16:01:33.429Z,99666.98
2022-08-26T16:04:39.604Z,99662.45
2022-08-26T16:07:49.604Z,99655.08
2022-08-26T16:11:03.423Z,99662.33
2022-08-26T16:14:07.450Z,99670.03
2022-08-26T16:17:14.053Z,99676.16
2022-08-26T16:20:21.156Z,99662.59
2022-08-26T16:23:27.361Z,99675.00
2022-08-26T16:26:42.226Z,99672.08
2022-08-26T16:29:48.060Z,99668.38
2022-08-26T16:32:47.862Z,99666.41
2022-08-26T16:35:52.748Z,99654.01
2022-08-26T16:39:03.141Z,99656.08
2022-08-26T16:42:08.530Z,99663.67
2022-08-26T16:45:14.297Z,99662.27
2022-08-26T16:48:20.670Z,99658.94
2022-08-26T16:51:30.292Z,99664.34
2022-08-26T16:54:35.638Z,99660.73
2022-08-26T16:57:41.372Z,99660.02
2022-08-26T17:00:49.110Z,99666.72
2022-08-26T17:03:54.979Z,99676.39
2022-08-26T17:07:01.804Z,99681.38
2022-08-26T17:10:07.567Z,99677.73
2022-08-26T17:13:25.953Z,99671.30
2022-08-26T17:16:26.998Z,99671.64
2022-08-26T17:19:40.728Z,99667.75
2022-08-26T17:22:42.115Z,99671.75
2022-08-26T17:25:48.842Z,99667.39
2022-08-26T17:28:53.469Z,99673.48
2022-08-26T17:31:59.364Z,99683.48
2022-08-26T17:35:05.195Z,99676.53
2022-08-26T17:38:11.283Z,99672.66
2022-08-26T17:41:19.651Z,99667.03
2022-08-26T17:44:25.048Z,99665.83
2022-08-26T17:47:30.796Z,99667.27
2022-08-26T17:50:37.895Z,99671.47
2022-08-26T17:53:37.371Z,99657.81
2022-08-26T17:56:33.069Z,99662.73
2022-08-26T17:59:39.168Z,99667.04
2022-08-26T18:02:47.582Z,99655.45
2022-08-26T18:05:53.679Z,99652.44
2022-08-26T18:08:59.438Z,99653.32
2022-08-26T18:12:05.096Z,99643.54
2022-08-26T18:15:11.336Z,99636.02
2022-08-26T18:18:17.413Z,99637.64
2022-08-26T18:21:30.167Z,99636.85
2022-08-26T18:24:37.040Z,99631.25
2022-08-26T18:27:43.395Z,99621.22
2022-08-26T18:30:41.742Z,99622.61
2022-08-26T18:33:50.027Z,99619.80
2022-08-26T18:36:55.195Z,99623.36
2022-08-26T18:40:00.291Z,99624.19
2022-08-26T18:42:59.409Z,99617.20
2022-08-26T18:45:45.572Z,99605.05
2022-08-26T18:48:38.940Z,99610.05
2022-08-26T18:51:30.947Z,99604.75
2022-08-26T18:54:30.225Z,99598.03
2022-08-26T18:57:36.775Z,99602.57
2022-08-26T19:00:42.291Z,99601.42
2022-08-26T19:03:47.580Z,99606.74
2022-08-26T19:06:53.601Z,99603.33
2022-08-26T19:09:59.357Z,99607.58
2022-08-26T19:13:05.475Z,99607.19
2022-08-26T19:16:12.742Z,99606.13
2022-08-26T19:19:11.253Z,99598.03
2022-08-26T19:22:04.136Z,99604.66
2022-08-26T19:25:11.089Z,99595.56
2022-08-26T19:28:17.255Z,99595.23
2022-08-26T19:31:24.290Z,99596.00
2022-08-26T19:34:30.905Z,99600.55
2022-08-26T19:37:30.258Z,99604.56
2022-08-26T19:40:23.663Z,99600.93
2022-08-26T19:43:28.494Z,99603.16
2022-08-26T19:49:34.751Z,99600.91
2022-08-26T19:52:30.043Z,99605.34
2022-08-26T19:55:35.858Z,99598.59
2022-08-26T19:58:42.155Z,99609.59
2022-08-26T20:01:47.579Z,99609.30
2022-08-26T20:04:55.507Z,99598.00
2022-08-26T20:08:02.689Z,99592.30
2022-08-26T20:11:07.836Z,99601.42
2022-08-26T20:14:06.712Z,99605.42
2022-08-26T20:16:58.853Z,99597.05
2022-08-26T20:20:32.588Z,99596.23
2022-08-26T20:23:29.186Z,99589.81
2022-08-26T20:26:35.203Z,99590.39
2022-08-26T20:29:42.053Z,99583.11
2022-08-26T20:32:47.661Z,99598.77
2022-08-26T20:35:54.127Z,99593.70
2022-08-26T20:38:59.764Z,99587.44
2022-08-26T20:42:04.554Z,99597.64
2022-08-26T20:45:10.815Z,99587.05
2022-08-26T20:48:15.711Z,99590.09
2022-08-26T20:51:21.584Z,99588.73
2022-08-26T20:54:28.528Z,99592.62
2022-08-26T20:57:35.219Z,99586.50
2022-08-26T21:00:40.644Z,99589.30
2022-08-26T21:03:48.049Z,99579.42
2022-08-26T21:06:53.860Z,99585.88
2022-08-26T21:09:59.994Z,99583.48
2022-08-26T21:13:06.440Z,99585.12
2022-08-26T21:16:12.629Z,99582.91
2022-08-26T21:19:19.335Z,99585.62
2022-08-26T21:22:25.178Z,99581.48
2022-08-26T21:25:30.261Z,99584.00
2022-08-26T21:28:35.245Z,99586.03
2022-08-26T21:31:46.465Z,99583.80
2022-08-26T21:34:51.218Z,99586.86
2022-08-26T21:37:56.234Z,99580.42
2022-08-26T21:41:23.488Z,99583.80
2022-08-26T21:44:29.704Z,99584.66
2022-08-26T21:47:38.786Z,99576.52
2022-08-26T21:50:44.511Z,99574.86
2022-08-26T21:53:50.249Z,99571.23
2022-08-26T21:56:57.458Z,99564.81
2022-08-26T21:59:57.667Z,99565.63
2022-08-26T22:03:05.010Z,99562.02
2022-08-26T22:06:09.946Z,99559.22
2022-08-26T22:09:16.341Z,99554.77
2022-08-26T22:12:17.828Z,99552.53
2022-08-26T22:15:05.063Z,99557.81
2022-08-26T22:17:58.181Z,99548.89
2022-08-26T22:20:53.043Z,99545.52
2022-08-26T22:23:51.178Z,99553.38
2022-08-26T22:27:00.093Z,99548.06
2022-08-26T22:30:05.149Z,99548.06
2022-08-26T22:33:11.069Z,99547.77
2022-08-26T22:36:16.275Z,99543.01
2022-08-26T22:39:21.284Z,99547.52
2022-08-26T22:42:26.792Z,99543.86
2022-08-26T22:45:31.560Z,99543.32
2022-08-26T22:48:39.610Z,99538.85
2022-08-26T22:51:45.299Z,99529.08
2022-08-26T22:54:50.050Z,99527.98
2022-08-26T22:57:57.893Z,99527.13
2022-08-26T23:01:05.839Z,99530.21
2022-08-26T23:04:11.827Z,99524.05
2022-08-26T23:07:10.730Z,99524.90
2022-08-26T23:10:05.727Z,99521.28
2022-08-26T23:13:12.059Z,99516.25
2022-08-26T23:16:21.032Z,99525.45
2022-08-26T23:19:27.768Z,99522.09
2022-08-26T23:22:33.937Z,99519.05
2022-08-26T23:25:40.432Z,99518.22
2022-08-26T23:28:47.487Z,99525.45
2022-08-26T23:31:55.841Z,99522.92
2022-08-26T23:35:05.237Z,99515.70
2022-08-26T23:38:12.702Z,99517.89
2022-08-26T23:41:20.700Z,99519.82
2022-08-26T23:44:27.382Z,99523.17
2022-08-26T23:47:33.491Z,99521.21
2022-08-26T23:50:58.387Z,99517.85
2022-08-26T23:54:04.564Z,99522.31
2022-08-26T23:57:10.953Z,99523.94
